Spring Mountain Youth Camp, Nevada Weather observations

Data are for 60 minute period ending at time listed.
 Day   Time   Solar   Ave.   Ave.  Ave.  Vector  Max.   Baro.   Total    
  of    of     Rad.   Air    Rel.  Wind   Wind   Wind  Press.  Precip.   
Year   Day            Temp.  Hum.  Speed  Dir.   Gust                    
2016   (PST)  Kw/m2    F      %     mph   deg.    mph    mb.     in.     
-------------------------------------------------------------------------
 124    4:00   0.00   38.6    57    1.6    25     4.9   792.3    0.00 
 124    5:00   0.00   37.6    59    1.5    13     4.1   792.5    0.00 
 124    6:00   0.02   38.5    60    1.1   302     3.3   792.8    0.00 
 124    7:00   0.29   43.8    52    2.0   142     9.1   792.9    0.00 
 124    8:00   0.31   44.6    54    5.8   153    14.6   793.1    0.00 
 124    9:00   0.70   46.3    52    6.6   158    17.3   793.4    0.00 
 124   10:00   0.86   47.1    50    8.8   156    17.0   793.5    0.00 
 124   11:00   0.98   48.1    45    8.5   156    17.6   793.6    0.00 
 124   12:00   1.02   49.6    42    8.2   154    18.6   793.4    0.00 
 124   13:00   1.02   50.3    40    8.9   159    23.7   793.3    0.00 
 124   14:00   0.95   51.3    36    8.8   158    18.9   793.2    0.00 
 124   15:00   0.82   52.0    31    8.9   156    20.0   792.9    0.00 
 124   16:00   0.63   52.3    30    7.9   160    16.5   792.7    0.00 
 124   17:00   0.37   51.3    29    7.2   150    15.3   792.6    0.00 
 124   18:00   0.10   48.4    31    6.3   160    10.5   792.4    0.00 
 124   19:00   0.01   46.1    35    7.4   161    10.9   792.1    0.00 
 124   20:00   0.00   46.4    39    9.6   164    15.0   792.1    0.00 
 124   21:00   0.00   46.3    45    9.3   167    14.8   792.3    0.00 
 124   22:00   0.00   45.4    47    8.1   165    12.2   792.2    0.00 
 124   23:00   0.00   45.7    46    8.3   164    12.2   792.2    0.00 
 125    0:00   0.00   45.5    46    7.0   162    12.4   792.3    0.00 
 125    1:00   0.00   45.3    47    6.9   163    10.1   792.3    0.00 
 125    2:00   0.00   45.0    49    7.6   164    12.0   792.0    0.00 
 125    3:00   0.00   44.5    50    9.2   166    13.4   791.6    0.00 

Return to Spring Mountain Youth Camp graphs page.


Western Regional Climate Center,wrcc@dri.edu